sensor_id;sensor_type;location;lat;lon;timestamp;pressure;altitude;pressure_sealevel;temperature;humidity
22862;BME280;11598;50.652;6.172;2023-02-22T00:02:41;96303.34;;;4.18;100.00
22862;BME280;11598;50.652;6.172;2023-02-22T00:12:44;96300.22;;;4.29;100.00
22862;BME280;11598;50.652;6.172;2023-02-22T00:22:45;96300.56;;;4.39;100.00
22862;BME280;11598;50.652;6.172;2023-02-22T00:32:47;96296.59;;;4.49;100.00
22862;BME280;11598;50.652;6.172;2023-02-22T00:42:48;96291.97;;;4.40;100.00
22862;BME280;11598;50.652;6.172;2023-02-22T00:52:49;96276.34;;;4.43;99.29
22862;BME280;11598;50.652;6.172;2023-02-22T01:02:50;96267.22;;;4.53;97.30
22862;BME280;11598;50.652;6.172;2023-02-22T01:12:50;96264.16;;;4.62;95.65
22862;BME280;11598;50.652;6.172;2023-02-22T01:22:53;96264.22;;;4.61;95.04
22862;BME280;11598;50.652;6.172;2023-02-22T01:32:54;96241.59;;;4.83;92.93
22862;BME280;11598;50.652;6.172;2023-02-22T01:42:58;96236.31;;;5.01;90.96
22862;BME280;11598;50.652;6.172;2023-02-22T01:52:59;96233.34;;;5.08;89.64
22862;BME280;11598;50.652;6.172;2023-02-22T02:03:04;96231.31;;;5.14;89.04
22862;BME280;11598;50.652;6.172;2023-02-22T02:13:07;96225.47;;;5.26;88.28
22862;BME280;11598;50.652;6.172;2023-02-22T02:43:54;96219.88;;;5.34;83.49
22862;BME280;11598;50.652;6.172;2023-02-22T02:53:58;96219.19;;;5.46;81.83
22862;BME280;11598;50.652;6.172;2023-02-22T03:14:23;96192.50;;;5.47;82.36
22862;BME280;11598;50.652;6.172;2023-02-22T03:24:28;96187.53;;;5.44;82.76
22862;BME280;11598;50.652;6.172;2023-02-22T03:34:34;96181.63;;;5.42;82.98
22862;BME280;11598;50.652;6.172;2023-02-22T03:44:37;96173.84;;;5.43;82.51
22862;BME280;11598;50.652;6.172;2023-02-22T03:54:40;96169.38;;;5.45;81.23
22862;BME280;11598;50.652;6.172;2023-02-22T04:04:41;96162.78;;;5.56;79.59
22862;BME280;11598;50.652;6.172;2023-02-22T04:14:41;96153.31;;;5.70;78.96
22862;BME280;11598;50.652;6.172;2023-02-22T04:24:41;96151.75;;;5.82;79.05
22862;BME280;11598;50.652;6.172;2023-02-22T04:34:41;96148.97;;;5.85;79.20
22862;BME280;11598;50.652;6.172;2023-02-22T04:44:42;96148.09;;;6.01;78.71
22862;BME280;11598;50.652;6.172;2023-02-22T04:54:42;96141.72;;;6.06;78.17
22862;BME280;11598;50.652;6.172;2023-02-22T05:04:43;96134.63;;;6.10;76.98
22862;BME280;11598;50.652;6.172;2023-02-22T05:14:44;96124.88;;;6.01;76.11
22862;BME280;11598;50.652;6.172;2023-02-22T05:24:44;96119.47;;;5.62;76.41
22862;BME280;11598;50.652;6.172;2023-02-22T05:34:45;96108.56;;;5.43;75.98
22862;BME280;11598;50.652;6.172;2023-02-22T05:44:45;96103.06;;;5.49;74.92
22862;BME280;11598;50.652;6.172;2023-02-22T05:54:45;96102.31;;;5.61;74.27
22862;BME280;11598;50.652;6.172;2023-02-22T06:04:46;96093.97;;;5.58;74.64
22862;BME280;11598;50.652;6.172;2023-02-22T06:14:46;96094.97;;;5.55;74.75
22862;BME280;11598;50.652;6.172;2023-02-22T06:24:47;96092.75;;;5.49;75.46
22862;BME280;11598;50.652;6.172;2023-02-22T06:34:47;96085.78;;;5.37;76.39
22862;BME280;11598;50.652;6.172;2023-02-22T06:44:47;96077.03;;;5.25;77.22
22862;BME280;11598;50.652;6.172;2023-02-22T06:54:49;96063.59;;;5.20;77.77
22862;BME280;11598;50.652;6.172;2023-02-22T07:04:49;96060.91;;;5.07;78.43
22862;BME280;11598;50.652;6.172;2023-02-22T07:14:54;96057.50;;;5.21;78.40
22862;BME280;11598;50.652;6.172;2023-02-22T07:24:55;96056.75;;;5.62;77.63
22862;BME280;11598;50.652;6.172;2023-02-22T07:34:55;96052.13;;;6.50;76.10
22862;BME280;11598;50.652;6.172;2023-02-22T07:44:56;96059.56;;;6.94;74.31
22862;BME280;11598;50.652;6.172;2023-02-22T07:54:57;96047.59;;;7.32;72.76
22862;BME280;11598;50.652;6.172;2023-02-22T08:04:57;96051.75;;;7.71;71.80
22862;BME280;11598;50.652;6.172;2023-02-22T08:14:58;96060.31;;;7.97;72.55
22862;BME280;11598;50.652;6.172;2023-02-22T08:24:58;96071.44;;;8.35;71.69
22862;BME280;11598;50.652;6.172;2023-02-22T08:34:58;96058.78;;;8.67;72.03
22862;BME280;11598;50.652;6.172;2023-02-22T08:45:00;96052.03;;;8.88;72.46
22862;BME280;11598;50.652;6.172;2023-02-22T08:55:01;96045.06;;;9.24;71.93
22862;BME280;11598;50.652;6.172;2023-02-22T09:05:01;96056.59;;;9.54;70.91
22862;BME280;11598;50.652;6.172;2023-02-22T09:15:02;96060.97;;;9.53;71.51
22862;BME280;11598;50.652;6.172;2023-02-22T09:25:03;96041.03;;;9.65;72.04
22862;BME280;11598;50.652;6.172;2023-02-22T09:35:04;96033.38;;;9.75;72.83
22862;BME280;11598;50.652;6.172;2023-02-22T09:45:22;96026.59;;;10.06;72.61
22862;BME280;11598;50.652;6.172;2023-02-22T09:55:37;96032.09;;;10.35;72.35
22862;BME280;11598;50.652;6.172;2023-02-22T10:05:40;96021.81;;;10.66;71.70
22862;BME280;11598;50.652;6.172;2023-02-22T10:25:55;96018.78;;;11.24;70.95
22862;BME280;11598;50.652;6.172;2023-02-22T10:35:58;96015.53;;;11.32;70.97
22862;BME280;11598;50.652;6.172;2023-02-22T10:46:02;96022.28;;;11.44;71.31
22862;BME280;11598;50.652;6.172;2023-02-22T10:56:21;96018.16;;;11.72;70.30
22862;BME280;11598;50.652;6.172;2023-02-22T11:06:22;96016.03;;;11.87;70.86
22862;BME280;11598;50.652;6.172;2023-02-22T11:16:34;96017.41;;;11.91;70.09
22862;BME280;11598;50.652;6.172;2023-02-22T11:26:59;96007.06;;;11.80;71.54
22862;BME280;11598;50.652;6.172;2023-02-22T11:47:21;95990.94;;;11.86;71.25
22862;BME280;11598;50.652;6.172;2023-02-22T11:57:38;95992.09;;;12.03;70.42
22862;BME280;11598;50.652;6.172;2023-02-22T12:18:27;95985.97;;;12.33;69.54
22862;BME280;11598;50.652;6.172;2023-02-22T12:28:52;95987.34;;;12.27;69.95
22862;BME280;11598;50.652;6.172;2023-02-22T12:39:03;95989.78;;;12.10;70.56
22862;BME280;11598;50.652;6.172;2023-02-22T12:49:15;95983.91;;;12.27;71.96
22862;BME280;11598;50.652;6.172;2023-02-22T13:10:02;95991.06;;;12.35;73.96
22862;BME280;11598;50.652;6.172;2023-02-22T13:20:07;95986.63;;;12.16;74.15
22862;BME280;11598;50.652;6.172;2023-02-22T13:30:20;95991.00;;;11.96;74.89
22862;BME280;11598;50.652;6.172;2023-02-22T13:51:12;95985.13;;;11.63;76.97
22862;BME280;11598;50.652;6.172;2023-02-22T14:11:40;95987.91;;;11.71;77.16
22862;BME280;11598;50.652;6.172;2023-02-22T14:21:59;95991.75;;;11.77;76.80
22862;BME280;11598;50.652;6.172;2023-02-22T14:32:06;95988.78;;;11.51;77.39
22862;BME280;11598;50.652;6.172;2023-02-22T14:52:27;95997.72;;;11.27;78.96
22862;BME280;11598;50.652;6.172;2023-02-22T15:02:37;96000.06;;;11.09;79.16
22862;BME280;11598;50.652;6.172;2023-02-22T15:12:37;96000.25;;;10.87;80.12
22862;BME280;11598;50.652;6.172;2023-02-22T15:22:38;96004.84;;;10.62;81.10
22862;BME280;11598;50.652;6.172;2023-02-22T15:32:39;96001.66;;;10.38;82.44
22862;BME280;11598;50.652;6.172;2023-02-22T15:42:48;96005.69;;;10.19;83.38
22862;BME280;11598;50.652;6.172;2023-02-22T16:03:08;96014.25;;;9.87;85.26
22862;BME280;11598;50.652;6.172;2023-02-22T16:13:31;96019.59;;;9.74;86.08
22862;BME280;11598;50.652;6.172;2023-02-22T16:33:43;96017.59;;;9.44;87.56
22862;BME280;11598;50.652;6.172;2023-02-22T16:43:46;96016.06;;;9.30;88.39
22862;BME280;11598;50.652;6.172;2023-02-22T16:53:51;96023.00;;;9.19;88.96
22862;BME280;11598;50.652;6.172;2023-02-22T17:03:52;96032.41;;;9.08;89.99
22862;BME280;11598;50.652;6.172;2023-02-22T17:13:53;96039.22;;;8.98;90.50
22862;BME280;11598;50.652;6.172;2023-02-22T17:23:54;96044.16;;;8.90;91.24
22862;BME280;11598;50.652;6.172;2023-02-22T17:34:00;96049.91;;;8.82;91.76
22862;BME280;11598;50.652;6.172;2023-02-22T17:44:02;96062.25;;;8.79;92.30
22862;BME280;11598;50.652;6.172;2023-02-22T17:54:03;96063.41;;;8.75;92.50
22862;BME280;11598;50.652;6.172;2023-02-22T18:04:04;96074.94;;;8.71;93.36
22862;BME280;11598;50.652;6.172;2023-02-22T18:14:05;96073.03;;;8.61;93.77
22862;BME280;11598;50.652;6.172;2023-02-22T18:24:07;96076.28;;;8.52;94.38
22862;BME280;11598;50.652;6.172;2023-02-22T18:34:08;96080.13;;;8.46;95.20
22862;BME280;11598;50.652;6.172;2023-02-22T18:44:08;96070.22;;;8.40;95.71
22862;BME280;11598;50.652;6.172;2023-02-22T18:54:11;96066.16;;;8.36;96.32
22862;BME280;11598;50.652;6.172;2023-02-22T19:04:11;96062.34;;;8.29;97.08
22862;BME280;11598;50.652;6.172;2023-02-22T19:14:12;96069.22;;;8.17;98.01
22862;BME280;11598;50.652;6.172;2023-02-22T19:24:12;96065.84;;;8.04;98.94
22862;BME280;11598;50.652;6.172;2023-02-22T19:34:13;96068.59;;;7.90;100.00
22862;BME280;11598;50.652;6.172;2023-02-22T19:44:14;96069.22;;;7.80;100.00
22862;BME280;11598;50.652;6.172;2023-02-22T19:54:15;96065.72;;;7.69;100.00
22862;BME280;11598;50.652;6.172;2023-02-22T20:04:20;96064.81;;;7.57;100.00
22862;BME280;11598;50.652;6.172;2023-02-22T20:14:24;96068.88;;;7.48;100.00
22862;BME280;11598;50.652;6.172;2023-02-22T20:24:25;96068.56;;;7.40;100.00
22862;BME280;11598;50.652;6.172;2023-02-22T20:34:27;96066.50;;;7.32;100.00
22862;BME280;11598;50.652;6.172;2023-02-22T20:44:32;96060.00;;;7.27;100.00
22862;BME280;11598;50.652;6.172;2023-02-22T20:54:32;96058.63;;;7.21;100.00
22862;BME280;11598;50.652;6.172;2023-02-22T21:04:34;96061.44;;;7.18;100.00
22862;BME280;11598;50.652;6.172;2023-02-22T21:14:35;96067.94;;;7.11;100.00
22862;BME280;11598;50.652;6.172;2023-02-22T21:24:36;96064.94;;;7.04;100.00
22862;BME280;11598;50.652;6.172;2023-02-22T21:34:37;96057.41;;;7.01;100.00
22862;BME280;11598;50.652;6.172;2023-02-22T21:44:38;96060.06;;;6.99;100.00
22862;BME280;11598;50.652;6.172;2023-02-22T21:54:38;96062.97;;;6.95;100.00
22862;BME280;11598;50.652;6.172;2023-02-22T22:04:38;96064.72;;;6.94;100.00
22862;BME280;11598;50.652;6.172;2023-02-22T22:14:39;96055.31;;;6.93;100.00
22862;BME280;11598;50.652;6.172;2023-02-22T22:24:39;96045.09;;;6.92;100.00
22862;BME280;11598;50.652;6.172;2023-02-22T22:34:44;96047.47;;;6.95;100.00
22862;BME280;11598;50.652;6.172;2023-02-22T22:44:45;96042.22;;;6.96;100.00
22862;BME280;11598;50.652;6.172;2023-02-22T22:54:49;96046.53;;;6.96;100.00
22862;BME280;11598;50.652;6.172;2023-02-22T23:04:49;96045.63;;;6.97;100.00
22862;BME280;11598;50.652;6.172;2023-02-22T23:14:50;96048.19;;;6.97;100.00
22862;BME280;11598;50.652;6.172;2023-02-22T23:24:51;96039.81;;;6.93;100.00
22862;BME280;11598;50.652;6.172;2023-02-22T23:34:53;96040.13;;;6.89;100.00
22862;BME280;11598;50.652;6.172;2023-02-22T23:44:54;96042.00;;;6.87;100.00
22862;BME280;11598;50.652;6.172;2023-02-22T23:54:54;96043.94;;;6.83;100.00
